Elizabethtown, NC (28337)

8:31 PM EDT on March 27, 2017 (GMT -0400)
Miller Place, White Lake | | Change Station

Elev 62 ft 34.63 °N, 78.50 °W | Updated 6 seconds ago

Partly Cloudy
Partly Cloudy
69.1 °F
Feels Like 69.1 °F
N
0.0
Wind Variable Wind from SSE
Gusts 0.0 mph

Today
High -- | Low -- °F
--% Chance of Precip.
Yesterday
High -- | Low -- °F
Precip. -- in
Pressure 30.02 in
Visibility 10.0 miles
Clouds Clear
Dew Point 29 °F
Humidity 22%
Rainfall 0.00 in
Snow Depth Not available.
7:08 AM 7:31 PM
Waning Crescent, 0% visible
METAR KEYF 280030Z AUTO 16006KT 10SM CLR 20/13 A3002 RMK AO2 T02030130
Pressure 30.02 in
Visibility 10.0 miles
Clouds Clear
Dew Point 29 °F
Humidity 22%
Rainfall 0.00 in
Snow Depth Not available.
7:08 AM 7:31 PM
Waning Crescent, 0% visible
METAR KEYF 280030Z AUTO 16006KT 10SM CLR 20/13 A3002 RMK AO2 T02030130

Get Severe Weather Alerts

Thanks for signing up!

Be on the lookout for a verification email in your inbox.

You'll start receiving the daily forecast at 8 AM.

×

10-Day Weather Forecast

Almanac

Astronomy

Mar. 27, 2017 Rise Set
Actual Time
Civil Twilight
Nautical Twilight
Astronomical Twilight
Moon
Length of Visible Light
Length of Day
Tomorrow will be .
, % of the Moon is Illuminated

Today's Extremes

State Highs State Lows

Community

WunderPhotos

Upload Photos

1,962,540 photos uploaded!

WunderBlog® & News

Nearby

Air Quality

  Air Quality AQ Index Pollutant
Not available.

Snow Depth

Station Depth Elevation

Earthquake Activity

City Distance Mag. Time & Date
Minimum magnitude displayed is 2.5.

Earthquake Activity

City Distance Mag. Time & Date
Minimum magnitude displayed is 2.5.

Coastal Water Temperatures

Place Temperature

Stations

Nearby Weather Stations

Station Location Temp. Windchill Dew Point Humidity Wind Precip. Elev Updated Type
                   

Watches & Warnings

There are currently no watches in effect.